ESCF/LPI METAR and TAF weather

Enter ICAO airport designator
Station Type Date Time Source
ESCF METAR 2020/08/15 09:50 UTC NOAA

ESCF 150950Z AUTO 25007KT 210V290 9999 NCD 26/11 Q1016


Station Type Date Time Source
ESCF Decoded METAR 2020/08/15 09:50 UTC NOAA

Linkoping / Malmen, Sweden (ESCF) 58-24N 015-31E 117M
Aug 15, 2020 - 05:50 AM EDT / 2020.08.15 0950 UTC
Wind: from the WSW (250 degrees) at 8 MPH (7 KT) (direction variable):0
Visibility: greater than 7 mile(s):0
Temperature: 78 F (26 C)
Dew Point: 51 F (11 C)
Relative Humidity: 39%
Pressure (altimeter): 30.00 in. Hg (1016 hPa)
ob: ESCF 150950Z AUTO 25007KT 210V290 9999 NCD 26/11 Q1016
cycle: 10

Station Type Date Time Source
ESCF TAF UTC NOAA

Error!

Example: see airport list